This is the latest recevied weather packets stored in our database for station/object KC1IUC-15. If no packets are shown the sender has not sent any weather packets the latest 10 day(s).
| Time | Temp. | Humidity | Pressure | Rain* | Wind** | Luminosity | Snow |
|---|---|---|---|---|---|---|---|
| 1788615903 | 22.22° C | 66% | 1009.3 hPa | 0 mm | - | 300 W/m² | - |
| 1788615603 | 22.22° C | 65% | 1009.3 hPa | 0 mm | - | 174 W/m² | - |
| 1788615303 | 22.22° C | 67% | 1009.3 hPa | 0 mm | - | 103 W/m² | - |
| 1788615003 | 21.67° C | 70% | 1009.6 hPa | 0 mm | - | 212 W/m² | - |
| 1788614703 | 21.67° C | 70% | 1009.6 hPa | 0 mm | - | 115 W/m² | - |
| 1788614403 | 21.67° C | 73% | 1009.3 hPa | 0 mm | - | 97 W/m² | - |
| 1788614103 | 21.11° C | 72% | 1009.3 hPa | 0 mm | - | 233 W/m² | - |
| 1788613803 | 21.11° C | 73% | 1009.3 hPa | 0 mm | - | 142 W/m² | - |
| 1788613503 | 21.11° C | 71% | 1009.6 hPa | 0 mm | - | 38 W/m² | - |
| 1788613203 | 21.11° C | 72% | 1009.6 hPa | 0 mm | - | 40 W/m² | - |
| 1788612903 | 21.11° C | 72% | 1009.6 hPa | 0 mm | - | 37 W/m² | - |
| 1788612603 | 21.11° C | 73% | 1009.6 hPa | 0 mm | - | 35 W/m² | - |
| 1788612303 | 20.56° C | 75% | 1009.6 hPa | 0 mm | - | 39 W/m² | - |
| 1788612003 | 20° C | 79% | 1009.6 hPa | 0 mm | - | 79 W/m² | - |
| 1788611703 | 20° C | 82% | 1009.6 hPa | 0 mm | - | 47 W/m² | - |
| 1788611403 | 19.44° C | 84% | 1009.6 hPa | 0 mm | - | 38 W/m² | - |
| 1788611103 | 18.89° C | 87% | 1009.9 hPa | 0 mm | - | 37 W/m² | - |
| 1788610823 | 18.33° C | 89% | 1009.6 hPa | 0 mm | - | 34 W/m² | - |
| 1788610503 | 17.22° C | 95% | 1009.6 hPa | 0 mm | - | 33 W/m² | - |
| 1788610203 | 16.67° C | 98% | 1009.9 hPa | 0 mm | - | 40 W/m² | - |
| 1788609903 | 16.67° C | 99% | 1009.6 hPa | 0 mm | - | 39 W/m² | - |
| 1788609603 | 16.11° C | 99% | 1009.6 hPa | 0 mm | - | 37 W/m² | - |
| 1788609333 | 16.11° C | 99% | 1009.6 hPa | 0 mm | - | 54 W/m² | - |
| 1788609003 | 15.56° C | 99% | 1009.3 hPa | 0 mm | - | 60 W/m² | - |
| 1788608703 | 15.56° C | 99% | 1009.6 hPa | 0 mm | - | 51 W/m² | - |
* Rain latest hour (hover to see other rain measurements)
** Current wind speed in m/s (hover to see current wind gust speed)